This is the latest recevied weather packets stored in our database for station/object HA9OZD-18. If no packets are shown the sender has not sent any weather packets the latest 10 day(s).
| Time | Temp. | Humidity | Pressure | Rain* | Wind** | Luminosity | Snow |
|---|---|---|---|---|---|---|---|
| 1787669103 | 21.11° C | 34% | 1015.3 hPa | - | - | - | - |
| 1787665503 | 22.22° C | 31% | 1015.1 hPa | - | - | - | - |
| 1787661903 | 26.67° C | 25% | 1015.5 hPa | - | - | - | - |
| 1787658302 | 23.89° C | 29% | 1016 hPa | - | - | - | - |
| 1787654702 | 22.22° C | 32% | 1016.6 hPa | - | - | - | - |
| 1787651102 | 22.22° C | 31% | 1016.5 hPa | - | - | - | - |
| 1787647502 | 20.56° C | 34% | 1016.9 hPa | - | - | - | - |
| 1787643901 | 19.44° C | 38% | 1017.1 hPa | - | - | - | - |
| 1787640371 | 17.22° C | 40% | 1017 hPa | - | - | - | - |
| 1787640301 | 17.22° C | 40% | 1017 hPa | - | - | - | - |
| 1787636867 | 15.56° C | 44% | 1017.1 hPa | - | - | - | - |
| 1787636701 | 15.56° C | 44% | 1017.1 hPa | - | - | - | - |
| 1787633303 | 13.89° C | 50% | 1016.9 hPa | - | - | - | - |
| 1787633100 | 13.89° C | 50% | 1016.9 hPa | - | - | - | - |
| 1787629500 | 13.89° C | 54% | 1017.1 hPa | - | - | - | - |
| 1787626387 | 13.33° C | 58% | 1017.2 hPa | - | - | - | - |
| 1787625934 | 13.33° C | 58% | 1017.2 hPa | - | - | - | - |
| 1787625900 | 13.33° C | 58% | 1017.2 hPa | - | - | - | - |
| 1787622300 | 12.78° C | 64% | 1017.6 hPa | - | - | - | - |
| 1787618699 | 12.22° C | 66% | 1018 hPa | - | - | - | - |
| 1787615099 | 13.33° C | 63% | 1018.8 hPa | - | - | - | - |
| 1787611499 | 13.33° C | 60% | 1019.1 hPa | - | - | - | - |
| 1787607898 | 13.89° C | 58% | 1019.1 hPa | - | - | - | - |
| 1787604297 | 14.44° C | 52% | 1018.8 hPa | - | - | - | - |
| 1787600697 | 16.11° C | 49% | 1019.1 hPa | - | - | - | - |
* Rain since midnight (hover to see other rain measurements)
** Current wind speed in m/s (hover to see current wind gust speed)